sensor_id;sensor_type;location;lat;lon;timestamp;P1;durP1;ratioP1;P2;durP2;ratioP2
9918;SDS011;4998;51.024;13.828;2022-07-29T00:01:01;2.50;;;1.90;;
9918;SDS011;4998;51.024;13.828;2022-07-29T00:03:28;3.10;;;2.00;;
9918;SDS011;4998;51.024;13.828;2022-07-29T00:05:55;2.00;;;1.80;;
9918;SDS011;4998;51.024;13.828;2022-07-29T00:08:24;3.77;;;2.20;;
9918;SDS011;4998;51.024;13.828;2022-07-29T00:10:51;2.43;;;1.70;;
9918;SDS011;4998;51.024;13.828;2022-07-29T00:13:17;4.03;;;2.30;;
9918;SDS011;4998;51.024;13.828;2022-07-29T00:15:44;2.80;;;2.30;;
9918;SDS011;4998;51.024;13.828;2022-07-29T00:18:11;4.30;;;2.10;;
9918;SDS011;4998;51.024;13.828;2022-07-29T00:20:38;3.60;;;2.03;;
9918;SDS011;4998;51.024;13.828;2022-07-29T00:23:05;2.13;;;1.90;;
9918;SDS011;4998;51.024;13.828;2022-07-29T00:25:33;2.53;;;2.10;;
9918;SDS011;4998;51.024;13.828;2022-07-29T00:28:00;3.77;;;2.63;;
9918;SDS011;4998;51.024;13.828;2022-07-29T00:30:27;5.03;;;2.37;;
9918;SDS011;4998;51.024;13.828;2022-07-29T00:32:54;5.33;;;2.30;;
9918;SDS011;4998;51.024;13.828;2022-07-29T00:35:21;5.33;;;2.63;;
9918;SDS011;4998;51.024;13.828;2022-07-29T00:38:06;5.30;;;2.70;;
9918;SDS011;4998;51.024;13.828;2022-07-29T00:40:34;6.07;;;2.93;;
9918;SDS011;4998;51.024;13.828;2022-07-29T00:43:01;5.40;;;3.23;;
9918;SDS011;4998;51.024;13.828;2022-07-29T00:45:28;6.30;;;3.40;;
9918;SDS011;4998;51.024;13.828;2022-07-29T00:47:56;6.73;;;3.33;;
9918;SDS011;4998;51.024;13.828;2022-07-29T00:50:23;4.47;;;3.47;;
9918;SDS011;4998;51.024;13.828;2022-07-29T00:52:50;4.70;;;3.30;;
9918;SDS011;4998;51.024;13.828;2022-07-29T00:55:18;11.77;;;3.97;;
9918;SDS011;4998;51.024;13.828;2022-07-29T00:57:46;6.70;;;3.67;;
9918;SDS011;4998;51.024;13.828;2022-07-29T01:00:14;5.67;;;3.77;;
9918;SDS011;4998;51.024;13.828;2022-07-29T01:02:43;5.27;;;3.80;;
9918;SDS011;4998;51.024;13.828;2022-07-29T01:05:10;7.10;;;4.23;;
9918;SDS011;4998;51.024;13.828;2022-07-29T01:07:38;5.00;;;3.83;;
9918;SDS011;4998;51.024;13.828;2022-07-29T01:10:06;4.97;;;4.10;;
9918;SDS011;4998;51.024;13.828;2022-07-29T01:12:36;8.20;;;5.00;;
9918;SDS011;4998;51.024;13.828;2022-07-29T01:15:07;8.80;;;5.50;;
9918;SDS011;4998;51.024;13.828;2022-07-29T01:17:36;7.63;;;5.47;;
9918;SDS011;4998;51.024;13.828;2022-07-29T01:20:10;10.33;;;6.07;;
9918;SDS011;4998;51.024;13.828;2022-07-29T01:22:50;8.77;;;5.80;;
9918;SDS011;4998;51.024;13.828;2022-07-29T01:25:43;9.67;;;6.07;;
9918;SDS011;4998;51.024;13.828;2022-07-29T01:31:19;14.00;;;8.80;;
9918;SDS011;4998;51.024;13.828;2022-07-29T01:33:53;23.23;;;9.40;;
9918;SDS011;4998;51.024;13.828;2022-07-29T01:36:33;19.07;;;9.33;;
9918;SDS011;4998;51.024;13.828;2022-07-29T01:39:05;16.77;;;9.87;;
9918;SDS011;4998;51.024;13.828;2022-07-29T01:41:43;16.80;;;10.00;;
9918;SDS011;4998;51.024;13.828;2022-07-29T01:44:18;17.07;;;10.80;;
9918;SDS011;4998;51.024;13.828;2022-07-29T01:46:51;14.50;;;10.37;;
9918;SDS011;4998;51.024;13.828;2022-07-29T01:49:24;14.07;;;9.83;;
9918;SDS011;4998;51.024;13.828;2022-07-29T01:51:54;16.60;;;9.33;;
9918;SDS011;4998;51.024;13.828;2022-07-29T01:54:25;17.63;;;9.13;;
9918;SDS011;4998;51.024;13.828;2022-07-29T01:56:56;12.30;;;8.33;;
9918;SDS011;4998;51.024;13.828;2022-07-29T01:59:26;14.93;;;8.30;;
9918;SDS011;4998;51.024;13.828;2022-07-29T02:01:55;17.93;;;8.47;;
9918;SDS011;4998;51.024;13.828;2022-07-29T02:04:24;12.30;;;8.20;;
9918;SDS011;4998;51.024;13.828;2022-07-29T02:06:54;12.63;;;8.00;;
9918;SDS011;4998;51.024;13.828;2022-07-29T02:09:24;13.27;;;8.83;;
9918;SDS011;4998;51.024;13.828;2022-07-29T02:11:53;14.73;;;9.90;;
9918;SDS011;4998;51.024;13.828;2022-07-29T02:14:21;17.23;;;11.30;;
9918;SDS011;4998;51.024;13.828;2022-07-29T02:16:51;16.03;;;11.50;;
9918;SDS011;4998;51.024;13.828;2022-07-29T02:19:21;14.00;;;10.00;;
9918;SDS011;4998;51.024;13.828;2022-07-29T02:21:51;19.17;;;11.27;;
9918;SDS011;4998;51.024;13.828;2022-07-29T02:24:19;20.90;;;11.80;;
9918;SDS011;4998;51.024;13.828;2022-07-29T02:26:49;19.33;;;10.97;;
9918;SDS011;4998;51.024;13.828;2022-07-29T02:29:17;26.60;;;13.10;;
9918;SDS011;4998;51.024;13.828;2022-07-29T02:31:47;22.00;;;13.37;;
9918;SDS011;4998;51.024;13.828;2022-07-29T02:34:17;23.10;;;14.60;;
9918;SDS011;4998;51.024;13.828;2022-07-29T02:36:45;21.20;;;13.73;;
9918;SDS011;4998;51.024;13.828;2022-07-29T02:39:13;17.97;;;12.87;;
9918;SDS011;4998;51.024;13.828;2022-07-29T02:41:43;19.63;;;13.23;;
9918;SDS011;4998;51.024;13.828;2022-07-29T02:44:13;19.53;;;12.53;;
9918;SDS011;4998;51.024;13.828;2022-07-29T02:46:43;17.57;;;12.40;;
9918;SDS011;4998;51.024;13.828;2022-07-29T02:49:23;16.43;;;11.67;;
9918;SDS011;4998;51.024;13.828;2022-07-29T02:51:59;23.53;;;12.57;;
9918;SDS011;4998;51.024;13.828;2022-07-29T02:54:31;19.10;;;12.90;;
9918;SDS011;4998;51.024;13.828;2022-07-29T02:57:00;24.30;;;13.53;;
9918;SDS011;4998;51.024;13.828;2022-07-29T02:59:32;26.03;;;14.87;;
9918;SDS011;4998;51.024;13.828;2022-07-29T03:02:02;21.87;;;14.60;;
9918;SDS011;4998;51.024;13.828;2022-07-29T03:04:34;22.30;;;15.60;;
9918;SDS011;4998;51.024;13.828;2022-07-29T03:07:02;27.50;;;15.87;;
9918;SDS011;4998;51.024;13.828;2022-07-29T03:09:31;26.13;;;14.60;;
9918;SDS011;4998;51.024;13.828;2022-07-29T03:11:58;23.33;;;14.20;;
9918;SDS011;4998;51.024;13.828;2022-07-29T03:14:26;22.77;;;13.33;;
9918;SDS011;4998;51.024;13.828;2022-07-29T03:16:54;22.70;;;13.97;;
9918;SDS011;4998;51.024;13.828;2022-07-29T03:19:21;20.37;;;12.20;;
9918;SDS011;4998;51.024;13.828;2022-07-29T03:21:50;16.80;;;11.90;;
9918;SDS011;4998;51.024;13.828;2022-07-29T03:24:24;21.03;;;12.00;;
9918;SDS011;4998;51.024;13.828;2022-07-29T03:26:52;17.40;;;11.47;;
9918;SDS011;4998;51.024;13.828;2022-07-29T03:29:20;14.37;;;10.80;;
9918;SDS011;4998;51.024;13.828;2022-07-29T03:31:47;19.30;;;11.63;;
9918;SDS011;4998;51.024;13.828;2022-07-29T03:34:14;18.13;;;11.50;;
9918;SDS011;4998;51.024;13.828;2022-07-29T03:36:41;17.10;;;10.47;;
9918;SDS011;4998;51.024;13.828;2022-07-29T03:39:09;23.87;;;12.37;;
9918;SDS011;4998;51.024;13.828;2022-07-29T03:41:38;20.07;;;13.40;;
9918;SDS011;4998;51.024;13.828;2022-07-29T03:44:07;20.00;;;14.13;;
9918;SDS011;4998;51.024;13.828;2022-07-29T03:46:35;24.07;;;15.70;;
9918;SDS011;4998;51.024;13.828;2022-07-29T03:49:05;19.53;;;13.80;;
9918;SDS011;4998;51.024;13.828;2022-07-29T03:51:34;22.80;;;16.07;;
9918;SDS011;4998;51.024;13.828;2022-07-29T03:54:02;24.97;;;15.30;;
9918;SDS011;4998;51.024;13.828;2022-07-29T03:56:32;22.37;;;14.83;;
9918;SDS011;4998;51.024;13.828;2022-07-29T03:59:03;22.33;;;15.27;;
9918;SDS011;4998;51.024;13.828;2022-07-29T04:01:32;22.67;;;14.93;;
9918;SDS011;4998;51.024;13.828;2022-07-29T04:04:00;26.40;;;15.80;;
9918;SDS011;4998;51.024;13.828;2022-07-29T04:06:27;23.67;;;14.33;;
9918;SDS011;4998;51.024;13.828;2022-07-29T04:08:54;25.70;;;14.77;;
9918;SDS011;4998;51.024;13.828;2022-07-29T04:11:21;23.23;;;14.77;;
9918;SDS011;4998;51.024;13.828;2022-07-29T04:13:49;27.73;;;15.90;;
9918;SDS011;4998;51.024;13.828;2022-07-29T04:16:16;19.90;;;14.00;;
9918;SDS011;4998;51.024;13.828;2022-07-29T04:18:43;23.07;;;14.13;;
9918;SDS011;4998;51.024;13.828;2022-07-29T04:21:10;23.93;;;14.10;;
9918;SDS011;4998;51.024;13.828;2022-07-29T04:23:37;28.90;;;15.50;;
9918;SDS011;4998;51.024;13.828;2022-07-29T04:26:04;23.40;;;15.27;;
9918;SDS011;4998;51.024;13.828;2022-07-29T04:28:34;22.80;;;14.90;;
9918;SDS011;4998;51.024;13.828;2022-07-29T04:31:03;23.50;;;16.50;;
9918;SDS011;4998;51.024;13.828;2022-07-29T04:33:30;22.47;;;16.10;;
9918;SDS011;4998;51.024;13.828;2022-07-29T04:35:57;25.90;;;15.77;;
9918;SDS011;4998;51.024;13.828;2022-07-29T04:38:23;21.13;;;14.10;;
9918;SDS011;4998;51.024;13.828;2022-07-29T04:40:50;23.80;;;15.10;;
9918;SDS011;4998;51.024;13.828;2022-07-29T04:43:18;21.03;;;14.63;;
9918;SDS011;4998;51.024;13.828;2022-07-29T04:45:45;23.23;;;14.17;;
9918;SDS011;4998;51.024;13.828;2022-07-29T04:48:13;23.60;;;14.77;;
9918;SDS011;4998;51.024;13.828;2022-07-29T04:50:40;24.70;;;16.23;;
9918;SDS011;4998;51.024;13.828;2022-07-29T04:53:07;24.37;;;16.27;;
9918;SDS011;4998;51.024;13.828;2022-07-29T04:55:34;57.77;;;16.43;;
9918;SDS011;4998;51.024;13.828;2022-07-29T04:58:01;27.07;;;15.00;;
9918;SDS011;4998;51.024;13.828;2022-07-29T05:00:28;24.03;;;14.97;;
9918;SDS011;4998;51.024;13.828;2022-07-29T05:02:55;26.00;;;16.40;;
9918;SDS011;4998;51.024;13.828;2022-07-29T05:05:23;30.63;;;18.10;;
9918;SDS011;4998;51.024;13.828;2022-07-29T05:07:50;29.90;;;19.90;;
9918;SDS011;4998;51.024;13.828;2022-07-29T05:10:17;30.47;;;19.77;;
9918;SDS011;4998;51.024;13.828;2022-07-29T05:12:44;35.53;;;21.40;;
9918;SDS011;4998;51.024;13.828;2022-07-29T05:15:11;33.23;;;22.73;;
9918;SDS011;4998;51.024;13.828;2022-07-29T05:17:38;35.87;;;23.70;;
9918;SDS011;4998;51.024;13.828;2022-07-29T05:20:05;37.50;;;24.60;;
9918;SDS011;4998;51.024;13.828;2022-07-29T05:22:34;41.10;;;24.50;;
9918;SDS011;4998;51.024;13.828;2022-07-29T05:25:02;44.47;;;25.20;;
9918;SDS011;4998;51.024;13.828;2022-07-29T05:27:29;42.87;;;24.50;;
9918;SDS011;4998;51.024;13.828;2022-07-29T05:29:56;32.47;;;21.57;;
9918;SDS011;4998;51.024;13.828;2022-07-29T05:32:23;31.60;;;20.37;;
9918;SDS011;4998;51.024;13.828;2022-07-29T05:34:50;31.17;;;19.87;;
9918;SDS011;4998;51.024;13.828;2022-07-29T05:37:17;30.33;;;20.33;;
9918;SDS011;4998;51.024;13.828;2022-07-29T05:39:46;32.40;;;20.07;;
9918;SDS011;4998;51.024;13.828;2022-07-29T05:42:13;32.10;;;19.03;;
9918;SDS011;4998;51.024;13.828;2022-07-29T05:44:40;24.57;;;18.00;;
9918;SDS011;4998;51.024;13.828;2022-07-29T05:47:07;27.50;;;17.30;;
9918;SDS011;4998;51.024;13.828;2022-07-29T05:49:34;26.37;;;16.33;;
9918;SDS011;4998;51.024;13.828;2022-07-29T05:52:01;25.47;;;16.10;;
9918;SDS011;4998;51.024;13.828;2022-07-29T05:54:28;24.63;;;15.67;;
9918;SDS011;4998;51.024;13.828;2022-07-29T05:56:57;22.37;;;15.90;;
9918;SDS011;4998;51.024;13.828;2022-07-29T05:59:24;21.23;;;14.63;;
9918;SDS011;4998;51.024;13.828;2022-07-29T06:01:51;20.87;;;13.43;;
9918;SDS011;4998;51.024;13.828;2022-07-29T06:04:18;20.50;;;13.67;;
9918;SDS011;4998;51.024;13.828;2022-07-29T06:06:45;19.40;;;12.33;;
9918;SDS011;4998;51.024;13.828;2022-07-29T06:09:12;21.00;;;13.00;;
9918;SDS011;4998;51.024;13.828;2022-07-29T06:11:40;21.30;;;13.33;;
9918;SDS011;4998;51.024;13.828;2022-07-29T06:14:09;20.23;;;13.30;;
9918;SDS011;4998;51.024;13.828;2022-07-29T06:16:36;19.70;;;12.27;;
9918;SDS011;4998;51.024;13.828;2022-07-29T06:19:03;22.03;;;13.13;;
9918;SDS011;4998;51.024;13.828;2022-07-29T06:21:30;22.10;;;13.17;;
9918;SDS011;4998;51.024;13.828;2022-07-29T06:23:57;21.90;;;13.10;;
9918;SDS011;4998;51.024;13.828;2022-07-29T06:26:24;17.60;;;12.83;;
9918;SDS011;4998;51.024;13.828;2022-07-29T06:28:51;18.17;;;12.50;;
9918;SDS011;4998;51.024;13.828;2022-07-29T06:31:19;26.23;;;13.70;;
9918;SDS011;4998;51.024;13.828;2022-07-29T06:33:46;24.43;;;12.70;;
9918;SDS011;4998;51.024;13.828;2022-07-29T06:36:13;18.77;;;13.07;;
9918;SDS011;4998;51.024;13.828;2022-07-29T06:38:40;21.87;;;13.00;;
9918;SDS011;4998;51.024;13.828;2022-07-29T06:41:07;19.63;;;12.10;;
9918;SDS011;4998;51.024;13.828;2022-07-29T06:43:37;17.03;;;12.10;;
9918;SDS011;4998;51.024;13.828;2022-07-29T06:46:07;16.87;;;12.57;;
9918;SDS011;4998;51.024;13.828;2022-07-29T06:48:36;16.57;;;12.30;;
9918;SDS011;4998;51.024;13.828;2022-07-29T06:51:04;17.83;;;11.50;;
9918;SDS011;4998;51.024;13.828;2022-07-29T06:53:32;19.23;;;11.00;;
9918;SDS011;4998;51.024;13.828;2022-07-29T06:56:00;17.07;;;10.63;;
9918;SDS011;4998;51.024;13.828;2022-07-29T06:58:28;17.73;;;10.83;;
9918;SDS011;4998;51.024;13.828;2022-07-29T07:00:55;15.90;;;10.53;;
9918;SDS011;4998;51.024;13.828;2022-07-29T07:03:23;16.60;;;11.30;;
9918;SDS011;4998;51.024;13.828;2022-07-29T07:05:52;16.83;;;11.87;;
9918;SDS011;4998;51.024;13.828;2022-07-29T07:08:20;17.50;;;11.73;;
9918;SDS011;4998;51.024;13.828;2022-07-29T07:10:48;14.97;;;11.00;;
9918;SDS011;4998;51.024;13.828;2022-07-29T07:13:15;18.13;;;11.40;;
9918;SDS011;4998;51.024;13.828;2022-07-29T07:15:43;20.00;;;12.63;;
9918;SDS011;4998;51.024;13.828;2022-07-29T07:18:10;21.90;;;13.23;;
9918;SDS011;4998;51.024;13.828;2022-07-29T07:20:37;23.80;;;15.40;;
9918;SDS011;4998;51.024;13.828;2022-07-29T07:23:05;26.40;;;16.40;;
9918;SDS011;4998;51.024;13.828;2022-07-29T07:25:32;22.67;;;14.93;;
9918;SDS011;4998;51.024;13.828;2022-07-29T07:27:59;25.67;;;15.10;;
9918;SDS011;4998;51.024;13.828;2022-07-29T07:30:26;23.33;;;15.17;;
9918;SDS011;4998;51.024;13.828;2022-07-29T07:32:53;27.27;;;16.03;;
9918;SDS011;4998;51.024;13.828;2022-07-29T07:35:21;25.10;;;16.33;;
9918;SDS011;4998;51.024;13.828;2022-07-29T07:37:48;25.90;;;17.00;;
9918;SDS011;4998;51.024;13.828;2022-07-29T07:40:16;21.43;;;15.30;;
9918;SDS011;4998;51.024;13.828;2022-07-29T07:42:43;26.50;;;17.17;;
9918;SDS011;4998;51.024;13.828;2022-07-29T07:45:11;19.90;;;15.70;;
9918;SDS011;4998;51.024;13.828;2022-07-29T07:47:38;24.03;;;15.40;;
9918;SDS011;4998;51.024;13.828;2022-07-29T07:50:07;21.70;;;14.33;;
9918;SDS011;4998;51.024;13.828;2022-07-29T07:52:40;23.47;;;14.90;;
9918;SDS011;4998;51.024;13.828;2022-07-29T07:55:12;25.50;;;14.00;;
9918;SDS011;4998;51.024;13.828;2022-07-29T07:57:41;28.33;;;14.20;;
9918;SDS011;4998;51.024;13.828;2022-07-29T08:00:08;22.40;;;13.90;;
9918;SDS011;4998;51.024;13.828;2022-07-29T08:02:36;17.80;;;13.30;;
9918;SDS011;4998;51.024;13.828;2022-07-29T08:05:03;18.00;;;12.90;;
9918;SDS011;4998;51.024;13.828;2022-07-29T08:07:30;19.57;;;12.17;;
9918;SDS011;4998;51.024;13.828;2022-07-29T08:09:57;24.13;;;12.33;;
9918;SDS011;4998;51.024;13.828;2022-07-29T08:12:24;21.10;;;13.10;;
9918;SDS011;4998;51.024;13.828;2022-07-29T08:14:52;23.00;;;13.20;;
9918;SDS011;4998;51.024;13.828;2022-07-29T08:17:19;27.20;;;12.10;;
9918;SDS011;4998;51.024;13.828;2022-07-29T08:19:46;18.90;;;12.43;;
9918;SDS011;4998;51.024;13.828;2022-07-29T08:22:14;14.77;;;10.20;;
9918;SDS011;4998;51.024;13.828;2022-07-29T08:24:42;15.80;;;10.30;;
9918;SDS011;4998;51.024;13.828;2022-07-29T08:27:09;16.67;;;10.97;;
9918;SDS011;4998;51.024;13.828;2022-07-29T08:29:37;17.57;;;10.50;;
9918;SDS011;4998;51.024;13.828;2022-07-29T08:32:06;14.20;;;10.00;;
9918;SDS011;4998;51.024;13.828;2022-07-29T08:34:33;19.07;;;10.20;;
9918;SDS011;4998;51.024;13.828;2022-07-29T08:37:00;15.23;;;9.73;;
9918;SDS011;4998;51.024;13.828;2022-07-29T08:39:27;16.40;;;10.53;;
9918;SDS011;4998;51.024;13.828;2022-07-29T08:41:54;18.10;;;10.40;;
9918;SDS011;4998;51.024;13.828;2022-07-29T08:44:22;15.80;;;10.50;;
9918;SDS011;4998;51.024;13.828;2022-07-29T08:46:49;14.53;;;9.53;;
9918;SDS011;4998;51.024;13.828;2022-07-29T08:49:17;15.70;;;10.20;;
9918;SDS011;4998;51.024;13.828;2022-07-29T08:51:44;15.10;;;9.77;;
9918;SDS011;4998;51.024;13.828;2022-07-29T08:54:12;13.37;;;9.50;;
9918;SDS011;4998;51.024;13.828;2022-07-29T08:56:43;14.00;;;9.43;;
9918;SDS011;4998;51.024;13.828;2022-07-29T08:59:11;18.80;;;10.07;;
9918;SDS011;4998;51.024;13.828;2022-07-29T09:01:40;18.20;;;9.50;;
9918;SDS011;4998;51.024;13.828;2022-07-29T09:04:10;17.70;;;9.03;;
9918;SDS011;4998;51.024;13.828;2022-07-29T09:06:42;20.00;;;9.13;;
9918;SDS011;4998;51.024;13.828;2022-07-29T09:09:11;13.03;;;8.40;;
9918;SDS011;4998;51.024;13.828;2022-07-29T09:11:40;13.07;;;9.07;;
9918;SDS011;4998;51.024;13.828;2022-07-29T09:14:07;11.57;;;8.50;;
9918;SDS011;4998;51.024;13.828;2022-07-29T09:16:46;13.20;;;8.70;;
9918;SDS011;4998;51.024;13.828;2022-07-29T09:19:19;15.20;;;8.90;;
9918;SDS011;4998;51.024;13.828;2022-07-29T09:21:51;14.90;;;9.13;;
9918;SDS011;4998;51.024;13.828;2022-07-29T09:24:26;13.47;;;9.77;;
9918;SDS011;4998;51.024;13.828;2022-07-29T09:27:03;16.40;;;9.30;;
9918;SDS011;4998;51.024;13.828;2022-07-29T09:29:43;13.57;;;8.30;;
9918;SDS011;4998;51.024;13.828;2022-07-29T09:32:10;11.73;;;9.00;;
9918;SDS011;4998;51.024;13.828;2022-07-29T09:34:37;14.90;;;9.70;;
9918;SDS011;4998;51.024;13.828;2022-07-29T09:37:06;10.87;;;8.53;;
9918;SDS011;4998;51.024;13.828;2022-07-29T09:39:35;14.73;;;8.90;;
9918;SDS011;4998;51.024;13.828;2022-07-29T09:42:04;11.00;;;8.80;;
9918;SDS011;4998;51.024;13.828;2022-07-29T09:44:42;12.50;;;8.30;;
9918;SDS011;4998;51.024;13.828;2022-07-29T09:47:10;14.33;;;9.10;;
9918;SDS011;4998;51.024;13.828;2022-07-29T09:49:50;13.20;;;8.90;;
9918;SDS011;4998;51.024;13.828;2022-07-29T09:52:20;16.03;;;8.70;;
9918;SDS011;4998;51.024;13.828;2022-07-29T09:54:47;12.33;;;8.97;;
9918;SDS011;4998;51.024;13.828;2022-07-29T09:57:22;13.83;;;8.97;;
9918;SDS011;4998;51.024;13.828;2022-07-29T09:59:58;12.23;;;8.30;;
9918;SDS011;4998;51.024;13.828;2022-07-29T10:02:29;10.47;;;7.40;;
9918;SDS011;4998;51.024;13.828;2022-07-29T10:04:57;11.03;;;7.73;;
9918;SDS011;4998;51.024;13.828;2022-07-29T10:07:27;10.73;;;7.70;;
9918;SDS011;4998;51.024;13.828;2022-07-29T10:10:10;9.30;;;7.20;;
9918;SDS011;4998;51.024;13.828;2022-07-29T10:12:47;9.10;;;6.30;;
9918;SDS011;4998;51.024;13.828;2022-07-29T10:15:15;9.70;;;6.53;;
9918;SDS011;4998;51.024;13.828;2022-07-29T10:17:43;6.90;;;5.63;;
9918;SDS011;4998;51.024;13.828;2022-07-29T10:20:11;7.30;;;5.60;;
9918;SDS011;4998;51.024;13.828;2022-07-29T10:22:39;8.00;;;5.10;;
9918;SDS011;4998;51.024;13.828;2022-07-29T10:25:07;5.60;;;4.53;;
9918;SDS011;4998;51.024;13.828;2022-07-29T10:27:35;4.73;;;4.20;;
9918;SDS011;4998;51.024;13.828;2022-07-29T10:30:03;6.10;;;3.00;;
9918;SDS011;4998;51.024;13.828;2022-07-29T10:32:36;3.60;;;2.47;;
9918;SDS011;4998;51.024;13.828;2022-07-29T10:35:18;2.87;;;2.60;;
9918;SDS011;4998;51.024;13.828;2022-07-29T10:38:02;1.93;;;1.83;;
9918;SDS011;4998;51.024;13.828;2022-07-29T10:40:54;2.10;;;1.90;;
9918;SDS011;4998;51.024;13.828;2022-07-29T10:43:50;1.73;;;1.63;;
9918;SDS011;4998;51.024;13.828;2022-07-29T10:46:19;1.80;;;1.70;;
9918;SDS011;4998;51.024;13.828;2022-07-29T10:49:06;2.50;;;1.73;;
9918;SDS011;4998;51.024;13.828;2022-07-29T10:51:53;2.00;;;1.90;;
9918;SDS011;4998;51.024;13.828;2022-07-29T10:54:46;1.70;;;1.60;;
9918;SDS011;4998;51.024;13.828;2022-07-29T10:57:19;1.87;;;1.77;;
9918;SDS011;4998;51.024;13.828;2022-07-29T11:00:25;2.10;;;1.90;;
9918;SDS011;4998;51.024;13.828;2022-07-29T11:02:56;2.13;;;1.90;;
9918;SDS011;4998;51.024;13.828;2022-07-29T11:05:25;2.10;;;1.90;;
9918;SDS011;4998;51.024;13.828;2022-07-29T11:10:52;2.17;;;1.97;;
9918;SDS011;4998;51.024;13.828;2022-07-29T11:13:47;2.00;;;1.90;;
9918;SDS011;4998;51.024;13.828;2022-07-29T11:16:17;1.53;;;1.43;;
9918;SDS011;4998;51.024;13.828;2022-07-29T11:21:45;1.83;;;1.60;;
9918;SDS011;4998;51.024;13.828;2022-07-29T11:24:15;1.73;;;1.43;;
9918;SDS011;4998;51.024;13.828;2022-07-29T11:26:44;1.90;;;1.80;;
9918;SDS011;4998;51.024;13.828;2022-07-29T11:29:16;5.43;;;2.00;;
9918;SDS011;4998;51.024;13.828;2022-07-29T11:31:46;2.07;;;1.93;;
9918;SDS011;4998;51.024;13.828;2022-07-29T11:34:24;2.17;;;1.97;;
9918;SDS011;4998;51.024;13.828;2022-07-29T11:39:45;2.13;;;2.03;;
9918;SDS011;4998;51.024;13.828;2022-07-29T11:45:24;2.97;;;2.20;;
9918;SDS011;4998;51.024;13.828;2022-07-29T11:47:58;2.00;;;1.87;;
9918;SDS011;4998;51.024;13.828;2022-07-29T11:50:32;8.30;;;2.37;;
9918;SDS011;4998;51.024;13.828;2022-07-29T11:53:01;2.20;;;2.10;;
9918;SDS011;4998;51.024;13.828;2022-07-29T11:55:29;3.47;;;2.13;;
9918;SDS011;4998;51.024;13.828;2022-07-29T11:58:00;2.50;;;2.30;;
9918;SDS011;4998;51.024;13.828;2022-07-29T12:00:30;2.50;;;2.30;;
9918;SDS011;4998;51.024;13.828;2022-07-29T12:03:00;2.80;;;2.33;;
9918;SDS011;4998;51.024;13.828;2022-07-29T12:05:32;2.83;;;1.83;;
9918;SDS011;4998;51.024;13.828;2022-07-29T12:08:05;2.40;;;2.20;;
9918;SDS011;4998;51.024;13.828;2022-07-29T12:10:34;4.07;;;2.53;;
9918;SDS011;4998;51.024;13.828;2022-07-29T12:13:01;2.90;;;2.60;;
9918;SDS011;4998;51.024;13.828;2022-07-29T12:15:30;3.07;;;2.77;;
9918;SDS011;4998;51.024;13.828;2022-07-29T12:17:57;3.40;;;3.10;;
9918;SDS011;4998;51.024;13.828;2022-07-29T12:20:24;2.87;;;2.20;;
9918;SDS011;4998;51.024;13.828;2022-07-29T12:22:53;2.50;;;2.03;;
9918;SDS011;4998;51.024;13.828;2022-07-29T12:25:21;2.47;;;2.27;;
9918;SDS011;4998;51.024;13.828;2022-07-29T12:27:59;2.10;;;2.00;;
9918;SDS011;4998;51.024;13.828;2022-07-29T12:30:38;16.50;;;3.07;;
9918;SDS011;4998;51.024;13.828;2022-07-29T12:33:13;2.37;;;1.97;;
9918;SDS011;4998;51.024;13.828;2022-07-29T12:35:43;2.30;;;2.20;;
9918;SDS011;4998;51.024;13.828;2022-07-29T12:38:11;2.13;;;2.03;;
9918;SDS011;4998;51.024;13.828;2022-07-29T12:40:39;2.23;;;2.03;;
9918;SDS011;4998;51.024;13.828;2022-07-29T12:43:07;2.67;;;2.27;;
9918;SDS011;4998;51.024;13.828;2022-07-29T12:45:35;2.53;;;2.33;;
9918;SDS011;4998;51.024;13.828;2022-07-29T12:48:04;2.40;;;2.20;;
9918;SDS011;4998;51.024;13.828;2022-07-29T12:50:33;1.87;;;1.77;;
9918;SDS011;4998;51.024;13.828;2022-07-29T12:53:08;2.37;;;2.00;;
9918;SDS011;4998;51.024;13.828;2022-07-29T12:55:40;1.97;;;1.87;;
9918;SDS011;4998;51.024;13.828;2022-07-29T12:58:08;1.90;;;1.80;;
9918;SDS011;4998;51.024;13.828;2022-07-29T13:00:35;1.80;;;1.70;;
9918;SDS011;4998;51.024;13.828;2022-07-29T13:03:03;2.43;;;1.80;;
9918;SDS011;4998;51.024;13.828;2022-07-29T13:05:40;3.87;;;2.30;;
9918;SDS011;4998;51.024;13.828;2022-07-29T13:08:10;1.90;;;1.80;;
9918;SDS011;4998;51.024;13.828;2022-07-29T13:10:38;2.20;;;2.00;;
9918;SDS011;4998;51.024;13.828;2022-07-29T13:13:06;1.90;;;1.80;;
9918;SDS011;4998;51.024;13.828;2022-07-29T13:15:35;2.13;;;1.93;;
9918;SDS011;4998;51.024;13.828;2022-07-29T13:18:04;1.80;;;1.70;;
9918;SDS011;4998;51.024;13.828;2022-07-29T13:20:51;2.10;;;2.00;;
9918;SDS011;4998;51.024;13.828;2022-07-29T13:23:18;2.83;;;1.93;;
9918;SDS011;4998;51.024;13.828;2022-07-29T13:25:45;2.17;;;2.00;;
9918;SDS011;4998;51.024;13.828;2022-07-29T13:28:12;2.20;;;2.00;;
9918;SDS011;4998;51.024;13.828;2022-07-29T13:30:39;1.97;;;1.87;;
9918;SDS011;4998;51.024;13.828;2022-07-29T13:33:08;2.00;;;1.90;;
9918;SDS011;4998;51.024;13.828;2022-07-29T13:35:35;2.63;;;2.20;;
9918;SDS011;4998;51.024;13.828;2022-07-29T13:38:02;2.23;;;2.13;;
9918;SDS011;4998;51.024;13.828;2022-07-29T13:40:29;3.13;;;2.27;;
9918;SDS011;4998;51.024;13.828;2022-07-29T13:42:56;2.20;;;2.07;;
9918;SDS011;4998;51.024;13.828;2022-07-29T13:45:23;3.70;;;1.77;;
9918;SDS011;4998;51.024;13.828;2022-07-29T13:47:50;2.20;;;2.00;;
9918;SDS011;4998;51.024;13.828;2022-07-29T13:50:18;2.90;;;2.10;;
9918;SDS011;4998;51.024;13.828;2022-07-29T13:52:45;2.00;;;1.90;;
9918;SDS011;4998;51.024;13.828;2022-07-29T13:55:13;1.93;;;1.80;;
9918;SDS011;4998;51.024;13.828;2022-07-29T13:57:40;5.80;;;2.37;;
9918;SDS011;4998;51.024;13.828;2022-07-29T14:00:08;2.20;;;2.00;;
9918;SDS011;4998;51.024;13.828;2022-07-29T14:02:36;2.60;;;2.37;;
9918;SDS011;4998;51.024;13.828;2022-07-29T14:05:03;2.20;;;2.00;;
9918;SDS011;4998;51.024;13.828;2022-07-29T14:07:32;2.83;;;1.97;;
9918;SDS011;4998;51.024;13.828;2022-07-29T14:09:59;2.20;;;2.00;;
9918;SDS011;4998;51.024;13.828;2022-07-29T14:12:26;2.87;;;2.10;;
9918;SDS011;4998;51.024;13.828;2022-07-29T14:14:53;3.37;;;2.10;;
9918;SDS011;4998;51.024;13.828;2022-07-29T14:17:20;2.10;;;1.60;;
9918;SDS011;4998;51.024;13.828;2022-07-29T14:19:47;2.17;;;1.97;;
9918;SDS011;4998;51.024;13.828;2022-07-29T14:22:14;2.57;;;1.87;;
9918;SDS011;4998;51.024;13.828;2022-07-29T14:24:45;2.73;;;2.00;;
9918;SDS011;4998;51.024;13.828;2022-07-29T14:27:12;2.87;;;1.90;;
9918;SDS011;4998;51.024;13.828;2022-07-29T14:29:39;1.90;;;1.80;;
9918;SDS011;4998;51.024;13.828;2022-07-29T14:32:06;2.20;;;2.00;;
9918;SDS011;4998;51.024;13.828;2022-07-29T14:34:35;2.03;;;1.80;;
9918;SDS011;4998;51.024;13.828;2022-07-29T14:37:02;3.20;;;2.10;;
9918;SDS011;4998;51.024;13.828;2022-07-29T14:39:30;3.40;;;2.10;;
9918;SDS011;4998;51.024;13.828;2022-07-29T14:41:59;2.67;;;2.07;;
9918;SDS011;4998;51.024;13.828;2022-07-29T14:44:26;3.83;;;2.80;;
9918;SDS011;4998;51.024;13.828;2022-07-29T14:46:56;3.37;;;2.07;;
9918;SDS011;4998;51.024;13.828;2022-07-29T14:49:24;2.00;;;1.90;;
9918;SDS011;4998;51.024;13.828;2022-07-29T14:51:51;2.40;;;2.20;;
9918;SDS011;4998;51.024;13.828;2022-07-29T14:54:18;9.90;;;2.40;;
9918;SDS011;4998;51.024;13.828;2022-07-29T14:56:45;5.30;;;2.67;;
9918;SDS011;4998;51.024;13.828;2022-07-29T14:59:15;2.83;;;2.63;;
9918;SDS011;4998;51.024;13.828;2022-07-29T15:01:43;4.50;;;2.30;;
9918;SDS011;4998;51.024;13.828;2022-07-29T15:04:10;2.73;;;2.53;;
9918;SDS011;4998;51.024;13.828;2022-07-29T15:06:37;2.87;;;2.57;;
9918;SDS011;4998;51.024;13.828;2022-07-29T15:09:04;4.80;;;3.20;;
9918;SDS011;4998;51.024;13.828;2022-07-29T15:11:31;4.30;;;3.60;;
9918;SDS011;4998;51.024;13.828;2022-07-29T15:13:59;4.17;;;3.73;;
9918;SDS011;4998;51.024;13.828;2022-07-29T15:16:27;6.30;;;3.70;;